sensor_id;sensor_type;location;lat;lon;timestamp;P1;durP1;ratioP1;P2;durP2;ratioP2
71154;SDS011;59375;53.216;5.728;2022-07-29T00:00:40;4.32;;;2.10;;
71154;SDS011;59375;53.216;5.728;2022-07-29T00:03:05;5.32;;;2.13;;
71154;SDS011;59375;53.216;5.728;2022-07-29T00:05:31;4.35;;;2.15;;
71154;SDS011;59375;53.216;5.728;2022-07-29T00:07:56;5.03;;;2.40;;
71154;SDS011;59375;53.216;5.728;2022-07-29T00:10:22;4.25;;;2.08;;
71154;SDS011;59375;53.216;5.728;2022-07-29T00:12:48;5.35;;;2.28;;
71154;SDS011;59375;53.216;5.728;2022-07-29T00:15:13;5.35;;;2.17;;
71154;SDS011;59375;53.216;5.728;2022-07-29T00:17:39;4.53;;;2.30;;
71154;SDS011;59375;53.216;5.728;2022-07-29T00:20:05;5.53;;;2.30;;
71154;SDS011;59375;53.216;5.728;2022-07-29T00:22:31;4.57;;;2.15;;
71154;SDS011;59375;53.216;5.728;2022-07-29T00:24:57;5.30;;;2.25;;
71154;SDS011;59375;53.216;5.728;2022-07-29T00:27:22;5.82;;;2.25;;
71154;SDS011;59375;53.216;5.728;2022-07-29T00:29:48;5.13;;;2.05;;
71154;SDS011;59375;53.216;5.728;2022-07-29T00:32:13;4.20;;;2.30;;
71154;SDS011;59375;53.216;5.728;2022-07-29T00:34:39;5.07;;;2.20;;
71154;SDS011;59375;53.216;5.728;2022-07-29T00:37:23;3.78;;;2.10;;
71154;SDS011;59375;53.216;5.728;2022-07-29T00:39:49;3.90;;;2.10;;
71154;SDS011;59375;53.216;5.728;2022-07-29T00:42:14;4.78;;;2.25;;
71154;SDS011;59375;53.216;5.728;2022-07-29T00:44:41;4.80;;;2.20;;
71154;SDS011;59375;53.216;5.728;2022-07-29T00:47:08;4.90;;;2.22;;
71154;SDS011;59375;53.216;5.728;2022-07-29T00:49:34;4.57;;;2.30;;
71154;SDS011;59375;53.216;5.728;2022-07-29T00:52:01;4.43;;;2.08;;
71154;SDS011;59375;53.216;5.728;2022-07-29T00:54:28;5.63;;;2.10;;
71154;SDS011;59375;53.216;5.728;2022-07-29T00:56:54;4.70;;;1.92;;
71154;SDS011;59375;53.216;5.728;2022-07-29T00:59:22;4.30;;;2.25;;
71154;SDS011;59375;53.216;5.728;2022-07-29T01:01:48;5.82;;;2.10;;
71154;SDS011;59375;53.216;5.728;2022-07-29T01:04:14;3.92;;;2.00;;
71154;SDS011;59375;53.216;5.728;2022-07-29T01:06:39;4.75;;;2.25;;
71154;SDS011;59375;53.216;5.728;2022-07-29T01:09:05;5.55;;;2.38;;
71154;SDS011;59375;53.216;5.728;2022-07-29T01:11:32;4.43;;;2.28;;
71154;SDS011;59375;53.216;5.728;2022-07-29T01:13:59;6.05;;;2.30;;
71154;SDS011;59375;53.216;5.728;2022-07-29T01:16:29;6.38;;;2.20;;
71154;SDS011;59375;53.216;5.728;2022-07-29T01:19:00;3.70;;;2.10;;
71154;SDS011;59375;53.216;5.728;2022-07-29T01:24:34;5.15;;;2.38;;
71154;SDS011;59375;53.216;5.728;2022-07-29T01:30:03;6.72;;;2.50;;
71154;SDS011;59375;53.216;5.728;2022-07-29T01:32:31;5.82;;;2.30;;
71154;SDS011;59375;53.216;5.728;2022-07-29T01:35:09;7.65;;;2.45;;
71154;SDS011;59375;53.216;5.728;2022-07-29T01:37:47;6.20;;;2.30;;
71154;SDS011;59375;53.216;5.728;2022-07-29T01:40:19;4.75;;;2.53;;
71154;SDS011;59375;53.216;5.728;2022-07-29T01:42:58;4.97;;;2.30;;
71154;SDS011;59375;53.216;5.728;2022-07-29T01:45:34;6.38;;;2.20;;
71154;SDS011;59375;53.216;5.728;2022-07-29T01:48:20;6.47;;;2.80;;
71154;SDS011;59375;53.216;5.728;2022-07-29T01:50:56;7.25;;;2.80;;
71154;SDS011;59375;53.216;5.728;2022-07-29T01:53:42;6.80;;;2.63;;
71154;SDS011;59375;53.216;5.728;2022-07-29T01:56:12;7.40;;;2.53;;
71154;SDS011;59375;53.216;5.728;2022-07-29T01:58:40;4.60;;;2.42;;
71154;SDS011;59375;53.216;5.728;2022-07-29T02:01:08;5.40;;;2.60;;
71154;SDS011;59375;53.216;5.728;2022-07-29T02:03:36;3.95;;;2.28;;
71154;SDS011;59375;53.216;5.728;2022-07-29T02:06:04;8.15;;;2.67;;
71154;SDS011;59375;53.216;5.728;2022-07-29T02:08:32;5.40;;;2.60;;
71154;SDS011;59375;53.216;5.728;2022-07-29T02:10:59;5.95;;;2.50;;
71154;SDS011;59375;53.216;5.728;2022-07-29T02:13:26;5.32;;;2.50;;
71154;SDS011;59375;53.216;5.728;2022-07-29T02:15:53;5.10;;;2.40;;
71154;SDS011;59375;53.216;5.728;2022-07-29T02:18:22;5.75;;;2.47;;
71154;SDS011;59375;53.216;5.728;2022-07-29T02:20:50;5.53;;;2.60;;
71154;SDS011;59375;53.216;5.728;2022-07-29T02:23:20;5.68;;;2.40;;
71154;SDS011;59375;53.216;5.728;2022-07-29T02:25:55;5.75;;;2.45;;
71154;SDS011;59375;53.216;5.728;2022-07-29T02:28:22;7.78;;;2.85;;
71154;SDS011;59375;53.216;5.728;2022-07-29T02:30:50;5.97;;;2.50;;
71154;SDS011;59375;53.216;5.728;2022-07-29T02:33:18;5.05;;;2.50;;
71154;SDS011;59375;53.216;5.728;2022-07-29T02:35:45;5.65;;;2.60;;
71154;SDS011;59375;53.216;5.728;2022-07-29T02:38:13;4.57;;;2.40;;
71154;SDS011;59375;53.216;5.728;2022-07-29T02:41:03;5.32;;;2.28;;
71154;SDS011;59375;53.216;5.728;2022-07-29T02:43:32;4.50;;;2.40;;
71154;SDS011;59375;53.216;5.728;2022-07-29T02:46:00;6.75;;;2.67;;
71154;SDS011;59375;53.216;5.728;2022-07-29T02:48:34;6.07;;;2.50;;
71154;SDS011;59375;53.216;5.728;2022-07-29T02:51:07;5.78;;;2.53;;
71154;SDS011;59375;53.216;5.728;2022-07-29T02:53:37;4.78;;;2.60;;
71154;SDS011;59375;53.216;5.728;2022-07-29T02:56:06;5.28;;;2.50;;
71154;SDS011;59375;53.216;5.728;2022-07-29T02:58:39;5.93;;;2.40;;
71154;SDS011;59375;53.216;5.728;2022-07-29T03:01:08;4.60;;;2.40;;
71154;SDS011;59375;53.216;5.728;2022-07-29T03:03:38;6.43;;;2.67;;
71154;SDS011;59375;53.216;5.728;2022-07-29T03:06:07;5.93;;;2.53;;
71154;SDS011;59375;53.216;5.728;2022-07-29T03:08:33;4.25;;;2.47;;
71154;SDS011;59375;53.216;5.728;2022-07-29T03:11:00;6.35;;;2.60;;
71154;SDS011;59375;53.216;5.728;2022-07-29T03:13:27;6.28;;;2.55;;
71154;SDS011;59375;53.216;5.728;2022-07-29T03:15:54;6.43;;;2.72;;
71154;SDS011;59375;53.216;5.728;2022-07-29T03:18:22;5.70;;;2.45;;
71154;SDS011;59375;53.216;5.728;2022-07-29T03:20:48;7.28;;;2.50;;
71154;SDS011;59375;53.216;5.728;2022-07-29T03:23:18;5.30;;;2.60;;
71154;SDS011;59375;53.216;5.728;2022-07-29T03:25:44;4.47;;;2.60;;
71154;SDS011;59375;53.216;5.728;2022-07-29T03:28:10;5.60;;;2.50;;
71154;SDS011;59375;53.216;5.728;2022-07-29T03:30:36;6.53;;;2.60;;
71154;SDS011;59375;53.216;5.728;2022-07-29T03:33:01;6.43;;;2.53;;
71154;SDS011;59375;53.216;5.728;2022-07-29T03:35:27;5.70;;;2.30;;
71154;SDS011;59375;53.216;5.728;2022-07-29T03:37:53;5.72;;;2.50;;
71154;SDS011;59375;53.216;5.728;2022-07-29T03:40:24;5.53;;;2.50;;
71154;SDS011;59375;53.216;5.728;2022-07-29T03:42:55;4.30;;;2.42;;
71154;SDS011;59375;53.216;5.728;2022-07-29T03:45:22;6.50;;;2.60;;
71154;SDS011;59375;53.216;5.728;2022-07-29T03:47:50;5.95;;;2.67;;
71154;SDS011;59375;53.216;5.728;2022-07-29T03:50:18;5.65;;;2.70;;
71154;SDS011;59375;53.216;5.728;2022-07-29T03:52:46;10.77;;;2.80;;
71154;SDS011;59375;53.216;5.728;2022-07-29T03:55:13;6.43;;;2.60;;
71154;SDS011;59375;53.216;5.728;2022-07-29T03:57:39;6.47;;;2.75;;
71154;SDS011;59375;53.216;5.728;2022-07-29T04:00:06;4.03;;;2.50;;
71154;SDS011;59375;53.216;5.728;2022-07-29T04:02:33;7.70;;;2.67;;
71154;SDS011;59375;53.216;5.728;2022-07-29T04:04:59;6.75;;;2.38;;
71154;SDS011;59375;53.216;5.728;2022-07-29T04:07:24;4.97;;;2.80;;
71154;SDS011;59375;53.216;5.728;2022-07-29T04:09:50;5.63;;;2.40;;
71154;SDS011;59375;53.216;5.728;2022-07-29T04:12:15;5.68;;;2.40;;
71154;SDS011;59375;53.216;5.728;2022-07-29T04:14:41;7.00;;;2.65;;
71154;SDS011;59375;53.216;5.728;2022-07-29T04:17:06;4.28;;;2.47;;
71154;SDS011;59375;53.216;5.728;2022-07-29T04:19:32;8.43;;;2.50;;
71154;SDS011;59375;53.216;5.728;2022-07-29T04:21:58;6.25;;;2.40;;
71154;SDS011;59375;53.216;5.728;2022-07-29T04:24:24;5.30;;;2.42;;
71154;SDS011;59375;53.216;5.728;2022-07-29T04:26:50;4.40;;;2.20;;
71154;SDS011;59375;53.216;5.728;2022-07-29T04:29:17;6.65;;;2.60;;
71154;SDS011;59375;53.216;5.728;2022-07-29T04:31:42;8.38;;;2.72;;
71154;SDS011;59375;53.216;5.728;2022-07-29T04:34:08;7.38;;;2.63;;
71154;SDS011;59375;53.216;5.728;2022-07-29T04:36:34;5.93;;;2.30;;
71154;SDS011;59375;53.216;5.728;2022-07-29T04:39:00;9.63;;;2.67;;
71154;SDS011;59375;53.216;5.728;2022-07-29T04:41:26;7.05;;;2.70;;
71154;SDS011;59375;53.216;5.728;2022-07-29T04:43:52;5.88;;;2.55;;
71154;SDS011;59375;53.216;5.728;2022-07-29T04:46:18;5.95;;;2.33;;
71154;SDS011;59375;53.216;5.728;2022-07-29T04:48:45;8.43;;;2.80;;
71154;SDS011;59375;53.216;5.728;2022-07-29T04:51:11;8.20;;;2.50;;
71154;SDS011;59375;53.216;5.728;2022-07-29T04:53:36;4.57;;;2.42;;
71154;SDS011;59375;53.216;5.728;2022-07-29T04:56:02;7.80;;;2.58;;
71154;SDS011;59375;53.216;5.728;2022-07-29T04:58:28;6.47;;;2.42;;
71154;SDS011;59375;53.216;5.728;2022-07-29T05:00:53;7.43;;;2.60;;
71154;SDS011;59375;53.216;5.728;2022-07-29T05:03:19;6.35;;;2.38;;
71154;SDS011;59375;53.216;5.728;2022-07-29T05:05:44;5.63;;;2.60;;
71154;SDS011;59375;53.216;5.728;2022-07-29T05:08:10;5.20;;;2.60;;
71154;SDS011;59375;53.216;5.728;2022-07-29T05:10:35;7.20;;;2.70;;
71154;SDS011;59375;53.216;5.728;2022-07-29T05:13:03;4.93;;;2.28;;
71154;SDS011;59375;53.216;5.728;2022-07-29T05:15:36;7.13;;;2.45;;
71154;SDS011;59375;53.216;5.728;2022-07-29T05:18:03;5.53;;;2.33;;
71154;SDS011;59375;53.216;5.728;2022-07-29T05:20:29;7.13;;;2.42;;
71154;SDS011;59375;53.216;5.728;2022-07-29T05:22:55;6.22;;;2.50;;
71154;SDS011;59375;53.216;5.728;2022-07-29T05:25:22;4.95;;;2.25;;
71154;SDS011;59375;53.216;5.728;2022-07-29T05:27:48;5.55;;;2.50;;
71154;SDS011;59375;53.216;5.728;2022-07-29T05:30:13;7.15;;;2.83;;
71154;SDS011;59375;53.216;5.728;2022-07-29T05:32:39;4.50;;;2.03;;
71154;SDS011;59375;53.216;5.728;2022-07-29T05:35:05;6.15;;;2.67;;
71154;SDS011;59375;53.216;5.728;2022-07-29T05:37:31;4.78;;;2.28;;
71154;SDS011;59375;53.216;5.728;2022-07-29T05:39:56;5.72;;;2.33;;
71154;SDS011;59375;53.216;5.728;2022-07-29T05:42:22;5.60;;;2.30;;
71154;SDS011;59375;53.216;5.728;2022-07-29T05:44:48;6.88;;;2.40;;
71154;SDS011;59375;53.216;5.728;2022-07-29T05:47:13;6.97;;;2.58;;
71154;SDS011;59375;53.216;5.728;2022-07-29T05:49:39;7.03;;;2.38;;
71154;SDS011;59375;53.216;5.728;2022-07-29T05:52:04;4.18;;;2.30;;
71154;SDS011;59375;53.216;5.728;2022-07-29T05:54:30;7.03;;;2.90;;
71154;SDS011;59375;53.216;5.728;2022-07-29T05:56:55;6.03;;;2.25;;
71154;SDS011;59375;53.216;5.728;2022-07-29T05:59:21;5.88;;;2.92;;
71154;SDS011;59375;53.216;5.728;2022-07-29T06:01:46;6.57;;;2.50;;
71154;SDS011;59375;53.216;5.728;2022-07-29T06:04:12;6.35;;;2.40;;
71154;SDS011;59375;53.216;5.728;2022-07-29T06:06:38;7.82;;;2.60;;
71154;SDS011;59375;53.216;5.728;2022-07-29T06:09:03;4.85;;;2.30;;
71154;SDS011;59375;53.216;5.728;2022-07-29T06:11:29;8.68;;;2.55;;
71154;SDS011;59375;53.216;5.728;2022-07-29T06:13:54;6.75;;;2.80;;
71154;SDS011;59375;53.216;5.728;2022-07-29T06:16:20;7.13;;;2.58;;
71154;SDS011;59375;53.216;5.728;2022-07-29T06:18:46;5.78;;;2.35;;
71154;SDS011;59375;53.216;5.728;2022-07-29T06:21:11;6.03;;;2.53;;
71154;SDS011;59375;53.216;5.728;2022-07-29T06:23:37;6.40;;;2.30;;
71154;SDS011;59375;53.216;5.728;2022-07-29T06:26:04;5.75;;;2.42;;
71154;SDS011;59375;53.216;5.728;2022-07-29T06:28:30;5.53;;;2.20;;
71154;SDS011;59375;53.216;5.728;2022-07-29T06:30:55;6.65;;;2.35;;
71154;SDS011;59375;53.216;5.728;2022-07-29T06:33:21;7.18;;;2.60;;
71154;SDS011;59375;53.216;5.728;2022-07-29T06:35:46;13.30;;;2.63;;
71154;SDS011;59375;53.216;5.728;2022-07-29T06:38:12;6.13;;;2.55;;
71154;SDS011;59375;53.216;5.728;2022-07-29T06:40:42;5.78;;;2.35;;
71154;SDS011;59375;53.216;5.728;2022-07-29T06:43:32;4.38;;;2.10;;
71154;SDS011;59375;53.216;5.728;2022-07-29T06:46:02;5.47;;;2.15;;
71154;SDS011;59375;53.216;5.728;2022-07-29T06:48:39;4.95;;;2.20;;
71154;SDS011;59375;53.216;5.728;2022-07-29T06:51:06;4.68;;;2.28;;
71154;SDS011;59375;53.216;5.728;2022-07-29T06:53:33;4.68;;;2.42;;
71154;SDS011;59375;53.216;5.728;2022-07-29T06:55:59;7.10;;;2.10;;
71154;SDS011;59375;53.216;5.728;2022-07-29T06:58:26;5.22;;;2.30;;
71154;SDS011;59375;53.216;5.728;2022-07-29T07:00:52;5.65;;;2.70;;
71154;SDS011;59375;53.216;5.728;2022-07-29T07:03:18;6.95;;;2.22;;
71154;SDS011;59375;53.216;5.728;2022-07-29T07:05:45;4.97;;;2.10;;
71154;SDS011;59375;53.216;5.728;2022-07-29T07:08:12;6.25;;;2.28;;
71154;SDS011;59375;53.216;5.728;2022-07-29T07:10:38;6.88;;;2.15;;
71154;SDS011;59375;53.216;5.728;2022-07-29T07:13:04;5.18;;;2.15;;
71154;SDS011;59375;53.216;5.728;2022-07-29T07:15:30;7.57;;;2.28;;
71154;SDS011;59375;53.216;5.728;2022-07-29T07:17:55;5.63;;;2.28;;
71154;SDS011;59375;53.216;5.728;2022-07-29T07:20:22;6.72;;;2.35;;
71154;SDS011;59375;53.216;5.728;2022-07-29T07:22:48;5.95;;;2.30;;
71154;SDS011;59375;53.216;5.728;2022-07-29T07:25:13;6.03;;;2.10;;
71154;SDS011;59375;53.216;5.728;2022-07-29T07:27:39;6.30;;;2.50;;
71154;SDS011;59375;53.216;5.728;2022-07-29T07:30:05;6.15;;;2.30;;
71154;SDS011;59375;53.216;5.728;2022-07-29T07:32:32;7.85;;;2.55;;
71154;SDS011;59375;53.216;5.728;2022-07-29T07:34:59;4.65;;;2.20;;
71154;SDS011;59375;53.216;5.728;2022-07-29T07:37:25;6.72;;;2.17;;
71154;SDS011;59375;53.216;5.728;2022-07-29T07:39:51;8.15;;;2.50;;
71154;SDS011;59375;53.216;5.728;2022-07-29T07:42:17;6.72;;;2.47;;
71154;SDS011;59375;53.216;5.728;2022-07-29T07:44:43;6.93;;;2.45;;
71154;SDS011;59375;53.216;5.728;2022-07-29T07:47:10;4.50;;;2.10;;
71154;SDS011;59375;53.216;5.728;2022-07-29T07:49:48;5.80;;;2.20;;
71154;SDS011;59375;53.216;5.728;2022-07-29T07:52:18;5.97;;;2.22;;
71154;SDS011;59375;53.216;5.728;2022-07-29T07:54:45;6.85;;;2.28;;
71154;SDS011;59375;53.216;5.728;2022-07-29T07:57:11;6.90;;;2.40;;
71154;SDS011;59375;53.216;5.728;2022-07-29T07:59:37;8.00;;;2.42;;
71154;SDS011;59375;53.216;5.728;2022-07-29T08:02:03;4.95;;;2.20;;
71154;SDS011;59375;53.216;5.728;2022-07-29T08:04:29;5.70;;;2.30;;
71154;SDS011;59375;53.216;5.728;2022-07-29T08:06:55;6.07;;;2.30;;
71154;SDS011;59375;53.216;5.728;2022-07-29T08:09:21;5.50;;;2.33;;
71154;SDS011;59375;53.216;5.728;2022-07-29T08:11:47;7.07;;;2.40;;
71154;SDS011;59375;53.216;5.728;2022-07-29T08:14:13;6.95;;;2.38;;
71154;SDS011;59375;53.216;5.728;2022-07-29T08:16:38;6.22;;;2.38;;
71154;SDS011;59375;53.216;5.728;2022-07-29T08:19:05;5.80;;;2.20;;
71154;SDS011;59375;53.216;5.728;2022-07-29T08:21:31;5.18;;;2.50;;
71154;SDS011;59375;53.216;5.728;2022-07-29T08:23:56;6.72;;;2.60;;
71154;SDS011;59375;53.216;5.728;2022-07-29T08:26:43;5.85;;;2.55;;
71154;SDS011;59375;53.216;5.728;2022-07-29T08:29:09;4.28;;;2.10;;
71154;SDS011;59375;53.216;5.728;2022-07-29T08:31:36;5.15;;;2.50;;
71154;SDS011;59375;53.216;5.728;2022-07-29T08:34:02;5.55;;;2.30;;
71154;SDS011;59375;53.216;5.728;2022-07-29T08:36:29;6.10;;;2.50;;
71154;SDS011;59375;53.216;5.728;2022-07-29T08:38:55;6.10;;;2.08;;
71154;SDS011;59375;53.216;5.728;2022-07-29T08:41:21;7.47;;;2.50;;
71154;SDS011;59375;53.216;5.728;2022-07-29T08:43:47;7.10;;;2.75;;
71154;SDS011;59375;53.216;5.728;2022-07-29T08:46:13;7.32;;;2.50;;
71154;SDS011;59375;53.216;5.728;2022-07-29T08:48:39;5.45;;;2.50;;
71154;SDS011;59375;53.216;5.728;2022-07-29T08:51:06;10.05;;;2.70;;
71154;SDS011;59375;53.216;5.728;2022-07-29T08:53:32;5.15;;;2.50;;
71154;SDS011;59375;53.216;5.728;2022-07-29T08:55:58;6.68;;;2.45;;
71154;SDS011;59375;53.216;5.728;2022-07-29T08:58:24;4.28;;;2.30;;
71154;SDS011;59375;53.216;5.728;2022-07-29T09:00:55;5.97;;;2.40;;
71154;SDS011;59375;53.216;5.728;2022-07-29T09:03:22;6.72;;;2.35;;
71154;SDS011;59375;53.216;5.728;2022-07-29T09:05:49;5.38;;;2.20;;
71154;SDS011;59375;53.216;5.728;2022-07-29T09:08:16;7.80;;;2.80;;
71154;SDS011;59375;53.216;5.728;2022-07-29T09:10:42;6.43;;;2.50;;
71154;SDS011;59375;53.216;5.728;2022-07-29T09:13:08;6.43;;;2.67;;
71154;SDS011;59375;53.216;5.728;2022-07-29T09:15:34;7.53;;;2.60;;
71154;SDS011;59375;53.216;5.728;2022-07-29T09:17:59;6.18;;;2.55;;
71154;SDS011;59375;53.216;5.728;2022-07-29T09:20:26;5.70;;;2.60;;
71154;SDS011;59375;53.216;5.728;2022-07-29T09:23:11;5.55;;;2.42;;
71154;SDS011;59375;53.216;5.728;2022-07-29T09:25:38;5.40;;;2.67;;
71154;SDS011;59375;53.216;5.728;2022-07-29T09:28:12;6.88;;;2.40;;
71154;SDS011;59375;53.216;5.728;2022-07-29T09:33:31;7.28;;;2.45;;
71154;SDS011;59375;53.216;5.728;2022-07-29T09:36:00;9.80;;;2.95;;
71154;SDS011;59375;53.216;5.728;2022-07-29T09:38:32;5.60;;;2.47;;
71154;SDS011;59375;53.216;5.728;2022-07-29T09:41:00;6.07;;;2.58;;
71154;SDS011;59375;53.216;5.728;2022-07-29T09:43:27;6.55;;;2.58;;
71154;SDS011;59375;53.216;5.728;2022-07-29T09:45:53;8.45;;;3.08;;
71154;SDS011;59375;53.216;5.728;2022-07-29T09:48:25;7.00;;;2.97;;
71154;SDS011;59375;53.216;5.728;2022-07-29T09:50:50;6.55;;;2.97;;
71154;SDS011;59375;53.216;5.728;2022-07-29T09:53:33;5.78;;;2.40;;
71154;SDS011;59375;53.216;5.728;2022-07-29T09:56:00;8.20;;;2.92;;
71154;SDS011;59375;53.216;5.728;2022-07-29T09:58:26;11.13;;;3.03;;
71154;SDS011;59375;53.216;5.728;2022-07-29T10:00:52;7.57;;;2.97;;
71154;SDS011;59375;53.216;5.728;2022-07-29T10:03:19;6.50;;;3.00;;
71154;SDS011;59375;53.216;5.728;2022-07-29T10:05:45;5.35;;;2.60;;
71154;SDS011;59375;53.216;5.728;2022-07-29T10:08:28;6.22;;;2.83;;
71154;SDS011;59375;53.216;5.728;2022-07-29T10:11:02;8.32;;;2.97;;
71154;SDS011;59375;53.216;5.728;2022-07-29T10:13:42;6.43;;;2.90;;
71154;SDS011;59375;53.216;5.728;2022-07-29T10:16:10;9.75;;;3.40;;
71154;SDS011;59375;53.216;5.728;2022-07-29T10:18:40;8.40;;;3.05;;
71154;SDS011;59375;53.216;5.728;2022-07-29T10:21:06;6.50;;;3.13;;
71154;SDS011;59375;53.216;5.728;2022-07-29T10:23:32;7.35;;;2.97;;
71154;SDS011;59375;53.216;5.728;2022-07-29T10:25:59;9.50;;;3.53;;
71154;SDS011;59375;53.216;5.728;2022-07-29T10:28:25;7.30;;;3.28;;
71154;SDS011;59375;53.216;5.728;2022-07-29T10:30:51;10.43;;;3.17;;
71154;SDS011;59375;53.216;5.728;2022-07-29T10:36:21;9.65;;;3.85;;
71154;SDS011;59375;53.216;5.728;2022-07-29T10:44:28;8.32;;;3.45;;
71154;SDS011;59375;53.216;5.728;2022-07-29T10:46:54;8.70;;;3.47;;
71154;SDS011;59375;53.216;5.728;2022-07-29T10:49:23;6.95;;;3.35;;
71154;SDS011;59375;53.216;5.728;2022-07-29T10:51:55;9.57;;;3.83;;
71154;SDS011;59375;53.216;5.728;2022-07-29T10:57:12;8.18;;;3.40;;
71154;SDS011;59375;53.216;5.728;2022-07-29T10:59:38;8.70;;;3.60;;
71154;SDS011;59375;53.216;5.728;2022-07-29T11:07:20;7.75;;;3.40;;
71154;SDS011;59375;53.216;5.728;2022-07-29T11:10:14;8.88;;;3.75;;
71154;SDS011;59375;53.216;5.728;2022-07-29T11:15:19;9.25;;;3.38;;
71154;SDS011;59375;53.216;5.728;2022-07-29T11:31:41;7.78;;;3.80;;
71154;SDS011;59375;53.216;5.728;2022-07-29T11:39:37;9.93;;;3.58;;
71154;SDS011;59375;53.216;5.728;2022-07-29T11:44:54;10.02;;;4.22;;
71154;SDS011;59375;53.216;5.728;2022-07-29T11:47:25;8.82;;;3.40;;
71154;SDS011;59375;53.216;5.728;2022-07-29T11:49:52;7.93;;;4.07;;
71154;SDS011;59375;53.216;5.728;2022-07-29T11:52:19;7.25;;;3.78;;
71154;SDS011;59375;53.216;5.728;2022-07-29T11:54:47;9.82;;;3.83;;
71154;SDS011;59375;53.216;5.728;2022-07-29T11:57:17;7.07;;;3.60;;
71154;SDS011;59375;53.216;5.728;2022-07-29T11:59:44;10.07;;;4.05;;
71154;SDS011;59375;53.216;5.728;2022-07-29T12:02:11;7.93;;;4.07;;
71154;SDS011;59375;53.216;5.728;2022-07-29T12:04:47;7.22;;;3.85;;
71154;SDS011;59375;53.216;5.728;2022-07-29T12:07:14;8.05;;;3.53;;
71154;SDS011;59375;53.216;5.728;2022-07-29T12:09:40;8.73;;;3.80;;
71154;SDS011;59375;53.216;5.728;2022-07-29T12:12:15;7.35;;;3.85;;
71154;SDS011;59375;53.216;5.728;2022-07-29T12:14:41;6.47;;;3.55;;
71154;SDS011;59375;53.216;5.728;2022-07-29T12:17:21;8.70;;;4.10;;
71154;SDS011;59375;53.216;5.728;2022-07-29T12:19:56;7.45;;;3.60;;
71154;SDS011;59375;53.216;5.728;2022-07-29T12:22:25;7.13;;;3.83;;
71154;SDS011;59375;53.216;5.728;2022-07-29T12:24:53;7.57;;;3.90;;
71154;SDS011;59375;53.216;5.728;2022-07-29T12:27:19;8.63;;;3.95;;
71154;SDS011;59375;53.216;5.728;2022-07-29T12:29:45;9.25;;;3.72;;
71154;SDS011;59375;53.216;5.728;2022-07-29T12:32:35;7.60;;;3.40;;
71154;SDS011;59375;53.216;5.728;2022-07-29T12:35:03;9.85;;;4.22;;
71154;SDS011;59375;53.216;5.728;2022-07-29T12:37:31;9.00;;;3.85;;
71154;SDS011;59375;53.216;5.728;2022-07-29T12:39:58;6.68;;;3.53;;
71154;SDS011;59375;53.216;5.728;2022-07-29T12:42:23;7.32;;;4.30;;
71154;SDS011;59375;53.216;5.728;2022-07-29T12:44:49;9.38;;;4.22;;
71154;SDS011;59375;53.216;5.728;2022-07-29T12:47:16;12.00;;;4.32;;
71154;SDS011;59375;53.216;5.728;2022-07-29T12:49:44;7.68;;;4.07;;
71154;SDS011;59375;53.216;5.728;2022-07-29T12:52:24;7.65;;;3.88;;
71154;SDS011;59375;53.216;5.728;2022-07-29T12:54:51;8.93;;;4.07;;
71154;SDS011;59375;53.216;5.728;2022-07-29T12:57:16;9.10;;;4.00;;
71154;SDS011;59375;53.216;5.728;2022-07-29T12:59:42;9.93;;;4.20;;
71154;SDS011;59375;53.216;5.728;2022-07-29T13:02:19;10.00;;;4.22;;
71154;SDS011;59375;53.216;5.728;2022-07-29T13:04:54;6.60;;;4.00;;
71154;SDS011;59375;53.216;5.728;2022-07-29T13:07:26;9.10;;;3.95;;
71154;SDS011;59375;53.216;5.728;2022-07-29T13:09:54;7.93;;;3.88;;
71154;SDS011;59375;53.216;5.728;2022-07-29T13:12:35;9.32;;;3.83;;
71154;SDS011;59375;53.216;5.728;2022-07-29T13:15:11;10.90;;;4.00;;
71154;SDS011;59375;53.216;5.728;2022-07-29T13:17:44;8.00;;;4.00;;
71154;SDS011;59375;53.216;5.728;2022-07-29T13:20:11;10.10;;;4.20;;
71154;SDS011;59375;53.216;5.728;2022-07-29T13:22:41;7.45;;;3.85;;
71154;SDS011;59375;53.216;5.728;2022-07-29T13:25:07;8.40;;;3.95;;
71154;SDS011;59375;53.216;5.728;2022-07-29T13:27:35;9.80;;;4.10;;
71154;SDS011;59375;53.216;5.728;2022-07-29T13:30:03;6.55;;;3.88;;
71154;SDS011;59375;53.216;5.728;2022-07-29T13:32:31;8.93;;;4.00;;
71154;SDS011;59375;53.216;5.728;2022-07-29T13:35:00;9.52;;;4.10;;
71154;SDS011;59375;53.216;5.728;2022-07-29T13:37:27;7.20;;;4.00;;
71154;SDS011;59375;53.216;5.728;2022-07-29T13:39:54;8.27;;;4.10;;
71154;SDS011;59375;53.216;5.728;2022-07-29T13:42:20;8.18;;;3.65;;
71154;SDS011;59375;53.216;5.728;2022-07-29T13:44:47;7.90;;;3.90;;
71154;SDS011;59375;53.216;5.728;2022-07-29T13:47:13;10.07;;;4.03;;
71154;SDS011;59375;53.216;5.728;2022-07-29T13:49:40;8.38;;;4.30;;
71154;SDS011;59375;53.216;5.728;2022-07-29T13:52:06;12.10;;;4.50;;
71154;SDS011;59375;53.216;5.728;2022-07-29T13:54:32;8.70;;;3.67;;
71154;SDS011;59375;53.216;5.728;2022-07-29T13:56:57;9.70;;;4.00;;
71154;SDS011;59375;53.216;5.728;2022-07-29T13:59:23;10.15;;;4.10;;
71154;SDS011;59375;53.216;5.728;2022-07-29T14:01:48;7.95;;;3.80;;
71154;SDS011;59375;53.216;5.728;2022-07-29T14:04:14;10.25;;;3.90;;
71154;SDS011;59375;53.216;5.728;2022-07-29T14:06:40;8.18;;;3.83;;
71154;SDS011;59375;53.216;5.728;2022-07-29T14:09:05;9.85;;;3.92;;
71154;SDS011;59375;53.216;5.728;2022-07-29T14:11:33;8.40;;;3.70;;
71154;SDS011;59375;53.216;5.728;2022-07-29T14:13:59;9.82;;;4.10;;
71154;SDS011;59375;53.216;5.728;2022-07-29T14:16:24;8.25;;;3.88;;
71154;SDS011;59375;53.216;5.728;2022-07-29T14:18:50;7.47;;;3.50;;
71154;SDS011;59375;53.216;5.728;2022-07-29T14:21:15;6.70;;;3.92;;
71154;SDS011;59375;53.216;5.728;2022-07-29T14:23:41;8.50;;;3.80;;
71154;SDS011;59375;53.216;5.728;2022-07-29T14:26:07;6.50;;;3.67;;
71154;SDS011;59375;53.216;5.728;2022-07-29T14:28:32;7.78;;;3.70;;
71154;SDS011;59375;53.216;5.728;2022-07-29T14:30:58;7.55;;;3.75;;
71154;SDS011;59375;53.216;5.728;2022-07-29T14:33:23;7.47;;;3.67;;
71154;SDS011;59375;53.216;5.728;2022-07-29T14:35:49;7.90;;;3.72;;
71154;SDS011;59375;53.216;5.728;2022-07-29T14:38:14;7.80;;;3.63;;
71154;SDS011;59375;53.216;5.728;2022-07-29T14:40:40;10.43;;;4.30;;
71154;SDS011;59375;53.216;5.728;2022-07-29T14:43:05;10.07;;;3.80;;
71154;SDS011;59375;53.216;5.728;2022-07-29T14:45:31;7.53;;;4.32;;
71154;SDS011;59375;53.216;5.728;2022-07-29T14:47:56;8.27;;;3.80;;
71154;SDS011;59375;53.216;5.728;2022-07-29T14:50:22;9.27;;;4.15;;
71154;SDS011;59375;53.216;5.728;2022-07-29T14:52:47;9.60;;;3.70;;
71154;SDS011;59375;53.216;5.728;2022-07-29T14:55:13;8.82;;;3.50;;
71154;SDS011;59375;53.216;5.728;2022-07-29T14:57:39;6.88;;;3.47;;
71154;SDS011;59375;53.216;5.728;2022-07-29T15:00:05;6.63;;;2.90;;
71154;SDS011;59375;53.216;5.728;2022-07-29T15:02:33;5.53;;;2.90;;
71154;SDS011;59375;53.216;5.728;2022-07-29T15:04:58;8.73;;;3.50;;
71154;SDS011;59375;53.216;5.728;2022-07-29T15:07:24;9.63;;;3.40;;
71154;SDS011;59375;53.216;5.728;2022-07-29T15:09:50;10.95;;;3.65;;
71154;SDS011;59375;53.216;5.728;2022-07-29T15:12:16;9.43;;;3.10;;
71154;SDS011;59375;53.216;5.728;2022-07-29T15:14:41;11.45;;;3.50;;
71154;SDS011;59375;53.216;5.728;2022-07-29T15:17:07;7.20;;;3.47;;
71154;SDS011;59375;53.216;5.728;2022-07-29T15:19:33;5.75;;;3.10;;
71154;SDS011;59375;53.216;5.728;2022-07-29T15:21:58;5.63;;;3.13;;
71154;SDS011;59375;53.216;5.728;2022-07-29T15:24:24;6.13;;;3.05;;
71154;SDS011;59375;53.216;5.728;2022-07-29T15:26:50;7.60;;;3.40;;
71154;SDS011;59375;53.216;5.728;2022-07-29T15:29:16;8.95;;;3.50;;
71154;SDS011;59375;53.216;5.728;2022-07-29T15:31:42;7.93;;;3.20;;
71154;SDS011;59375;53.216;5.728;2022-07-29T15:34:08;9.13;;;3.40;;
71154;SDS011;59375;53.216;5.728;2022-07-29T15:36:34;5.55;;;3.17;;
71154;SDS011;59375;53.216;5.728;2022-07-29T15:38:59;8.02;;;3.15;;
71154;SDS011;59375;53.216;5.728;2022-07-29T15:41:26;8.45;;;3.38;;